Decatur, New York
Current Conditions -  °F | °C
As of 12:35 AM on Saturday 20 Dec 2014 (Local Time) from KNY0 Reporting Station
Clear Clear  
Wind Chill: 10°   Ceiling: Unl
Heat Index: 18°   Visibility: 10mi
Dew Point: 13°   Wind: 6mph
Humidity: 83%   Direction: 280°W
Pressure: 30.2"   Gusts: NA
Location:  42.6106°N, 74.7208°W
Report Text: KNY0 200535Z AUTO 28005KT 10SM CLR M08/M10 A3020 RMK AO2 T10781103
Loading
Personal Weather Stations






























Interactive Weather Map New forecast layout! Learn more

10-Day Weather Forecast

Advertisements
Track Severe Weather on mobile